Uitslag Triatlon Brugge top 3

# Naam Totaal
1 (40) Coysman Joke 02:08:47 79.80
2 (108) Lewyllie Jolien 02:16:54 75.69
3 (162) Vandenbroucke Louise 02:21:27 74.05
4 (190) Cuyvers Vanessa 02:22:30 73.68
5 (193) De Raedt Roos 02:22:34 73.65
6 (202) Deley Danielle 02:23:04 73.47
7 (220) Renema Louise 02:24:14 73.05
8 (237) Blomme Marieke 02:25:26 72.62
9 (246) Verhelst Catherine 02:26:07 72.38
10 (269) De Boeck Gina 02:27:33 71.86
11 (280) Leys Sabine 02:28:15 71.61
12 (286) Danneels Annemie 02:28:40 71.46
13 (287) De Deene Veronique 02:28:43 71.44
14 (301) Van Hove Janne 02:29:32 71.15
15 (354) vanderghote chantal 02:32:15 70.18
16 (361) Govaerts Elke 02:32:41 70.02
17 (365) Samaey Ynak 02:32:47 69.98
18 (376) France Marijke 02:33:26 69.75
19 (390) Willems Caroline 02:34:11 69.48
20 (392) Kermarrec Morgane 02:34:15 69.46
21 (393) Lefèvre Stefanie 02:34:15 69.46
22 (400) Margarita Grigoriadi 02:34:36 69.33
23 (404) Lauwers Kaat 02:34:44 69.28
24 (406) Vermont Lies 02:34:48 69.26
25 (408) Roose Sien 02:34:53 69.23
26 (423) Meeus Annelies 02:36:14 68.75
27 (430) Cayzeele Hilde 02:36:33 68.63
28 (434) Bultynck Karin 02:36:39 68.60
29 (444) Van Dyck Delfien 02:37:28 68.30
30 (452) Vandenberghe Tinne 02:37:44 68.21
31 (457) Verstraete Annelies 02:37:56 68.14
32 (459) Pauwels Katia 02:38:17 68.01
33 (467) Tineke Tempelaere 02:38:49 67.82
34 (478) Decoutere Sylvia 02:39:30 67.57
35 (480) Deckers Miet 02:39:38 67.53
36 (484) Suvee Leen 02:39:53 67.44
37 (486) Ann Fidlers 02:39:57 67.41
38 (487) Clincke Annelies 02:39:58 67.41
39 (512) Martens Stephanie 02:41:29 66.86
40 (518) Taillieu Mieke 02:41:43 66.78
41 (544) De Vos Patricia 02:42:58 66.33
42 (546) Dervaux Nele 02:43:04 66.29
43 (549) Soenen Nessie 02:43:14 66.23
44 (555) Daenekynt Isabel 02:43:44 66.05
45 (556) Vanbrabant Dorien 02:43:51 66.01
46 (560) Bullynck Bieke 02:43:57 65.98
47 (563) Bultynck Christa 02:44:14 65.87
48 (571) Teetaert Eva 02:44:40 65.72
49 (572) Defour Sofie 02:44:45 65.69
50 (573) Machiels Heidi 02:44:50 65.66
51 (580) Neyt Sara 02:45:23 65.46
52 (584) Floreal Isabelle 02:45:27 65.44
53 (585) Deman Kelly 02:45:28 65.43
54 (599) Mieke Wille 02:46:26 65.09
55 (601) Raedt Veronique 02:46:35 65.03
56 (607) Verhelst Evelyn 02:46:57 64.90
57 (612) De Gelder Karolien 02:47:21 64.76
58 (613) Dams Jill 02:47:24 64.74
59 (615) Eerebout Niki 02:47:33 64.68
60 (621) De Backer Bie 02:47:53 64.56
61 (622) Liviau Ruth 02:47:55 64.55
62 (626) Tanghe Heleen 02:48:11 64.46
63 (632) De Kesel Sofie 02:48:23 64.39
64 (633) Benoot Charlotte 02:48:31 64.34
65 (634) Ghyselbrecht Nathalie 02:48:49 64.23
66 (637) Van Tendeloo Lutgard 02:48:58 64.18
67 (640) Defoort Saartje 02:49:06 64.13
68 (653) Deruyck Griet 02:49:30 63.98
69 (658) Van Summeren Maycke 02:49:39 63.93
70 (662) Standaert Martine 02:49:41 63.92
71 (665) Behaeghe Sofie 02:49:47 63.88
72 (668) De Meue Elke 02:50:07 63.76
73 (674) Bourry Laetitia 02:50:25 63.66
74 (678) Kerckhove Katrien 02:50:39 63.57
75 (679) Penez Maaike 02:50:41 63.56
76 (686) Voeten Leen 02:51:23 63.31
77 (692) Perneel Kathy 02:51:38 63.22
78 (693) Vanhecke Marleen 02:51:42 63.19
79 (694) Boels Vera 02:51:42 63.19
80 (695) De Vos Annelien 02:51:53 63.13
81 (697) Coomans Natalie 02:51:57 63.10
82 (698) Priem Sofie 02:52:01 63.08
83 (704) Janssens Catharina 02:52:24 62.94
84 (708) Beernaert Nathalie 02:52:36 62.87
85 (712) Pyck Kristel 02:52:53 62.77
86 (716) Robesyn Valérie 02:53:19 62.61
87 (722) Coulon Stephanie 02:53:45 62.46
88 (724) Verpaele Valerie 02:53:50 62.43
89 (725) Zwartjes Marieke 02:53:54 62.40
90 (727) Snauwaert Isabel 02:53:54 62.40
91 (729) Maddens Fien 02:53:56 62.39
92 (730) Debo Kristien 02:53:57 62.39
93 (736) Strobbe Tine 02:54:16 62.27
94 (738) Zon-tiggerdine Yvonne 02:54:20 62.25
95 (740) Neirynck Tania 02:54:27 62.21
96 (741) Vanhollebeke Lien 02:54:37 62.15
97 (742) Huyghe Ingrid 02:54:40 62.13
98 (750) Dejonghe Miek 02:55:16 61.91
99 (752) Van Hoye Kristin 02:55:21 61.88
100 (755) Pylyser Els 02:55:29 61.84
101 (757) Huys Sabine 02:55:33 61.81
102 (759) Lambrecht Annick 02:55:47 61.73
103 (763) François Evelyne 02:56:18 61.54
104 (764) Maes Katrien 02:56:19 61.54
105 (765) Depla Stephanie 02:56:31 61.47
106 (768) Hubrecht Marjolein 02:56:45 61.38
107 (771) Van Lersberghe Patsy 02:56:56 61.32
108 (775) Verdonck Michèle 02:57:03 61.27
109 (776) Vandendriessche Saartje 02:57:11 61.23
110 (777) Gabriel Charlotte 02:57:12 61.22
111 (780) Lesaffer Cai 02:57:19 61.18
112 (784) Debeuf Veerle 02:57:48 61.00
113 (785) Vermeire Sabine 02:58:04 60.91
114 (786) Vanderschueren Kathy 02:58:11 60.87
115 (788) Nieuwenhuyzen Sandrine 02:58:17 60.83
116 (789) Vandenbussche Joke 02:58:21 60.81
117 (791) Dochy Sofie 02:58:38 60.71
118 (793) Allemeersch Ann 02:59:02 60.56
119 (797) Michiels Lore 02:59:42 60.32
120 (798) Aneca Patty 02:59:43 60.32
121 (801) Van Den Sande Liesbeth 02:59:53 60.26
122 (802) Claus Ann 02:59:54 60.25
123 (807) Vandevoorde Katleen 03:00:53 59.90
124 (808) Mylle Dorette 03:00:56 59.88
125 (809) Vangaever Ann 03:01:02 59.84
126 (810) Bouchez Ilse 03:01:22 59.72
127 (811) Claeys Lindsay 03:01:25 59.71
128 (814) Lenaerts Marleen 03:01:29 59.68
129 (815) Leemans Marleen 03:01:58 59.51
130 (825) Spruyt Greet 03:03:30 58.96
131 (826) Cathenis Joke 03:03:35 58.93
132 (827) Wilssens Nele 03:03:46 58.86
133 (828) Vermeersch Isabelle 03:03:55 58.81
134 (829) De Buck Caroline 03:03:59 58.79
135 (833) Vanderheijden Jana 03:04:48 58.49
136 (837) Aerts Sabrina 03:05:17 58.32
137 (840) Allaert Ilse 03:05:38 58.19
138 (841) D'haeninck Nathalie 03:06:01 58.06
139 (842) Maelfait Jolien 03:06:09 58.01
140 (844) Deckers Tine 03:07:01 57.70
141 (848) Broechoven An 03:07:42 57.45
142 (849) Claeys Veronique 03:07:59 57.35
143 (853) Degryse Charlotte 03:08:18 57.24
144 (854) De Clerck Nathalie 03:08:41 57.10
145 (855) Cornelis Heidi 03:08:41 57.10
146 (857) Steenhaut Isabelle 03:08:46 57.07
147 (858) Van Cauwenberghe Dominique 03:09:00 56.98
148 (862) Vanmaercke Ilse 03:09:13 56.91
149 (864) Langenus Romy 03:09:40 56.75
150 (866) Trauwaen Goedele 03:10:16 56.53
151 (871) De Croix Tine 03:10:38 56.40
152 (872) Verraes Natalie 03:10:49 56.33
153 (873) Vandewyngaerde Sofie 03:11:00 56.27
154 (874) Bedert Katrien 03:11:10 56.21
155 (877) Demuynck Emma 03:11:57 55.93
156 (878) Vens Donatienne 03:12:00 55.91
157 (880) Vande Paer Cindy 03:12:24 55.76
158 (881) Van Eeghem Pascale 03:12:26 55.75
159 (883) Vannoote Liesbeth 03:13:36 55.33
160 (885) Meulemeester Karen 03:13:46 55.27
161 (889) Van Der Zouw Paulina 03:15:02 54.82
162 (890) Skrbkova Alena 03:15:08 54.78
163 (892) Dewettinck Ann 03:15:25 54.68
164 (898) Hens Nele 03:17:31 53.93
165 (899) Muyshondt Nele 03:18:18 53.65
166 (900) Deckers Lies 03:18:25 53.60
167 (901) Geedts Lorna 03:18:28 53.59
168 (902) Deblauwe Wendy 03:19:14 53.31
169 (904) Rotsaert Saskia 03:19:37 53.17
170 (905) Sebreghts Godelieve 03:21:02 52.67
171 (907) Germonpré Imke 03:21:40 52.44
172 (908) Gijsens Linda 03:22:14 52.23
173 (909) Kinnet Els 03:22:19 52.20
174 (911) Pintelon Katrien 03:22:44 52.05
175 (916) Van Dyck Ilse 03:26:05 50.85
176 (917) Versluys Sabine 03:27:30 50.34
177 (918) Waldraet Sofie 03:27:49 50.23
178 (919) Vanden Broucke Ines 03:28:13 50.09
179 (920) Caems Annita 03:31:41 48.84
180 (921) Schalk Elske 03:34:08 47.96
181 (923) Penez Hannelore 03:36:03 47.27
182 (925) D'haen Viviane 03:41:15 45.41
183 (926) Casier Jocelyne 03:48:51 42.18

Reacties

  • 7 jaar geleden

    Geachte
    Voor de triathlon van 2011 werd de infrastructuur van het Sint-Leocollege gebruikt. Vanaf 1 september is er in de secundaire afdeling een volledig nieuw directieteam. Niemand is eigenlijk echt op de hoogte van de thriatlon van dit jaar en van de voorbereiding. Zou het aub mogelijk zijn dat er iemand van de organisatie contact op neemt met het secretariaat van de school (050/44.59.33)?
    Is er een mogelijkheid dat er nog groepen van leerkrachten zich kunnen inschrijven? Volgens hen was dit vorig jaar wel mogelijk. Wij hebben echter geen contactpersoon...
    Alvast bedankt voor uw reactie.
    Met vriendelijke groeten
    Kristien Dejonghe
    directiesecretaris